createdAt,value
2022-11-29T00:01:42.693Z,15.13
2022-11-29T00:04:12.919Z,17.70
2022-11-29T00:06:41.498Z,15.23
2022-11-29T00:09:13.052Z,12.77
2022-11-29T00:12:00.448Z,12.38
2022-11-29T00:14:29.507Z,11.98
2022-11-29T00:17:01.874Z,13.52
2022-11-29T00:19:32.770Z,12.07
2022-11-29T00:22:02.380Z,15.32
2022-11-29T00:24:32.594Z,18.25
2022-11-29T00:27:01.549Z,14.32
2022-11-29T00:29:30.818Z,14.45
2022-11-29T00:31:59.400Z,12.85
2022-11-29T00:34:28.063Z,12.70
2022-11-29T00:36:57.862Z,11.98
2022-11-29T00:39:26.420Z,13.35
2022-11-29T00:41:54.912Z,16.02
2022-11-29T00:44:23.225Z,13.88
2022-11-29T00:46:51.629Z,9.75
2022-11-29T00:49:20.066Z,12.45
2022-11-29T00:51:48.621Z,9.82
2022-11-29T00:54:18.402Z,11.70
2022-11-29T00:56:46.857Z,12.63
2022-11-29T00:59:15.181Z,15.30
2022-11-29T01:01:43.617Z,14.70
2022-11-29T01:04:12.170Z,12.65
2022-11-29T01:06:40.687Z,13.75
2022-11-29T01:09:09.943Z,10.65
2022-11-29T01:11:39.874Z,11.48
2022-11-29T01:14:08.263Z,16.80
2022-11-29T01:16:36.697Z,16.95
2022-11-29T01:19:07.187Z,13.50
2022-11-29T01:21:35.709Z,14.73
2022-11-29T01:24:04.347Z,11.82
2022-11-29T01:26:33.014Z,11.13
2022-11-29T01:29:02.760Z,15.85
2022-11-29T01:31:33.485Z,11.02
2022-11-29T01:34:03.506Z,12.13
2022-11-29T01:36:34.625Z,12.77
2022-11-29T01:39:05.312Z,14.32
2022-11-29T01:41:35.531Z,11.15
2022-11-29T01:44:07.450Z,11.25
2022-11-29T01:46:38.272Z,10.40
2022-11-29T01:49:11.164Z,9.27
2022-11-29T01:51:43.265Z,11.93
2022-11-29T01:54:13.353Z,13.95
2022-11-29T01:56:44.055Z,13.27
2022-11-29T01:59:18.328Z,13.43
2022-11-29T02:01:46.896Z,11.27
2022-11-29T02:04:16.093Z,12.98
2022-11-29T02:06:44.713Z,12.60
2022-11-29T02:09:19.499Z,12.52
2022-11-29T02:12:09.338Z,9.80
2022-11-29T02:15:00.124Z,12.73
2022-11-29T02:17:38.402Z,10.43
2022-11-29T02:20:44.203Z,9.43
2022-11-29T02:23:40.272Z,10.55
2022-11-29T02:26:28.095Z,13.02
2022-11-29T02:29:23.257Z,10.45
2022-11-29T02:32:36.259Z,13.93
2022-11-29T02:35:24.407Z,10.23
2022-11-29T02:38:16.565Z,11.82
2022-11-29T02:40:59.482Z,11.38
2022-11-29T02:43:43.519Z,11.30
2022-11-29T02:46:27.143Z,12.18
2022-11-29T02:49:04.008Z,12.45
2022-11-29T02:51:42.476Z,10.75
2022-11-29T02:54:17.334Z,10.18
2022-11-29T02:56:54.920Z,12.70
2022-11-29T02:59:38.343Z,11.43
2022-11-29T03:02:19.330Z,13.30
2022-11-29T03:04:55.488Z,9.32
2022-11-29T03:07:31.992Z,8.90
2022-11-29T03:10:06.459Z,9.32
2022-11-29T03:12:41.780Z,8.52
2022-11-29T03:15:22.353Z,13.13
2022-11-29T03:18:03.652Z,12.80
2022-11-29T03:20:40.188Z,11.18
2022-11-29T03:23:22.961Z,9.65
2022-11-29T03:25:57.339Z,8.32
2022-11-29T03:28:32.240Z,10.38
2022-11-29T03:31:11.195Z,12.10
2022-11-29T03:33:48.975Z,11.13
2022-11-29T03:36:26.592Z,8.30
2022-11-29T03:39:02.277Z,11.60
2022-11-29T03:44:09.661Z,11.05
2022-11-29T03:46:45.190Z,11.35
2022-11-29T03:49:19.538Z,12.88
2022-11-29T03:52:01.696Z,10.88
2022-11-29T03:54:38.962Z,12.60
2022-11-29T03:57:07.834Z,10.63
2022-11-29T03:59:53.125Z,18.23
2022-11-29T04:02:41.590Z,13.07
2022-11-29T04:05:35.652Z,12.68
2022-11-29T04:08:28.819Z,13.68
2022-11-29T04:11:31.585Z,10.60
2022-11-29T04:14:28.422Z,14.23
2022-11-29T04:17:35.144Z,11.52
2022-11-29T04:20:41.236Z,11.70
2022-11-29T04:23:36.847Z,15.80
2022-11-29T04:26:34.621Z,17.58
2022-11-29T04:29:16.339Z,17.15
2022-11-29T04:32:03.802Z,14.40
2022-11-29T04:35:04.913Z,13.88
2022-11-29T04:37:55.920Z,22.38
2022-11-29T04:40:51.795Z,18.02
2022-11-29T04:43:45.054Z,15.68
2022-11-29T04:46:39.341Z,19.17
2022-11-29T04:49:23.840Z,17.25
2022-11-29T04:52:16.820Z,15.02
2022-11-29T04:54:50.141Z,14.50
2022-11-29T04:57:26.533Z,21.50
2022-11-29T05:00:06.349Z,20.88
2022-11-29T05:02:42.364Z,18.55
2022-11-29T05:05:32.175Z,15.90
2022-11-29T05:08:16.973Z,19.88
2022-11-29T05:10:53.585Z,18.42
2022-11-29T05:13:29.909Z,17.08
2022-11-29T05:16:10.538Z,19.15
2022-11-29T05:19:12.580Z,18.83
2022-11-29T05:21:51.889Z,16.90
2022-11-29T05:24:31.519Z,18.00
2022-11-29T05:27:12.381Z,20.23
2022-11-29T05:29:47.943Z,15.95
2022-11-29T05:32:28.486Z,16.05
2022-11-29T05:35:25.577Z,12.75
2022-11-29T05:37:58.293Z,16.50
2022-11-29T05:40:41.628Z,16.02
2022-11-29T05:43:26.386Z,18.00
2022-11-29T05:46:03.690Z,16.38
2022-11-29T05:48:45.121Z,21.23
2022-11-29T05:51:22.334Z,14.77
2022-11-29T05:54:00.133Z,15.10
2022-11-29T05:56:43.411Z,15.80
2022-11-29T05:59:16.680Z,18.60
2022-11-29T06:01:53.415Z,14.55
2022-11-29T06:04:28.670Z,16.70
2022-11-29T06:07:08.672Z,20.02
2022-11-29T06:09:44.674Z,16.00
2022-11-29T06:12:20.876Z,14.00
2022-11-29T06:15:13.559Z,16.58
2022-11-29T06:18:03.178Z,19.40
2022-11-29T06:20:44.507Z,17.50
2022-11-29T06:23:37.527Z,16.30
2022-11-29T06:26:19.444Z,17.40
2022-11-29T06:29:02.425Z,16.10
2022-11-29T06:31:33.996Z,21.48
2022-11-29T06:34:11.663Z,24.88
2022-11-29T06:36:44.854Z,22.85
2022-11-29T06:39:15.447Z,17.38
2022-11-29T06:41:44.141Z,15.45
2022-11-29T06:44:13.005Z,17.10
2022-11-29T06:46:46.461Z,20.65
2022-11-29T06:49:23.296Z,23.73
2022-11-29T06:52:04.544Z,19.83
2022-11-29T06:54:56.173Z,17.55
2022-11-29T06:57:34.236Z,22.10
2022-11-29T07:00:11.511Z,21.25
2022-11-29T07:02:58.629Z,19.38
2022-11-29T07:05:29.037Z,21.30
2022-11-29T07:08:01.719Z,18.52
2022-11-29T07:10:34.650Z,24.08
2022-11-29T07:13:03.577Z,19.77
2022-11-29T07:15:32.898Z,18.13
2022-11-29T07:18:15.104Z,19.70
2022-11-29T07:20:52.666Z,21.33
2022-11-29T07:23:30.620Z,19.83
2022-11-29T07:26:15.972Z,23.80
2022-11-29T07:28:55.553Z,30.75
2022-11-29T07:31:32.320Z,26.77
2022-11-29T07:34:11.752Z,20.88
2022-11-29T07:36:50.530Z,27.70
2022-11-29T07:39:26.659Z,28.13
2022-11-29T07:42:03.879Z,29.05
2022-11-29T07:44:39.510Z,26.83
2022-11-29T07:49:37.201Z,24.80
2022-11-29T07:52:05.600Z,25.40
2022-11-29T07:54:33.957Z,27.10
2022-11-29T07:57:03.677Z,31.58
2022-11-29T07:59:32.124Z,29.88
2022-11-29T08:02:00.530Z,30.67
2022-11-29T08:04:28.869Z,28.52
2022-11-29T08:06:59.490Z,30.85
2022-11-29T08:09:28.029Z,29.35
2022-11-29T08:11:56.396Z,27.63
2022-11-29T08:14:26.143Z,26.13
2022-11-29T08:16:54.514Z,34.03
2022-11-29T08:19:22.809Z,40.30
2022-11-29T08:21:52.144Z,33.13
2022-11-29T08:24:20.680Z,33.13
2022-11-29T08:26:49.137Z,31.10
2022-11-29T08:29:17.921Z,35.88
2022-11-29T08:31:53.193Z,33.28
2022-11-29T08:34:22.019Z,34.72
2022-11-29T08:36:51.160Z,30.02
2022-11-29T08:39:19.546Z,32.53
2022-11-29T08:41:47.855Z,34.05
2022-11-29T08:44:16.208Z,32.05
2022-11-29T08:47:02.220Z,36.03
2022-11-29T08:52:14.276Z,33.53
2022-11-29T08:54:42.890Z,34.75
2022-11-29T09:00:00.504Z,39.60
2022-11-29T09:02:28.999Z,35.80
2022-11-29T09:04:58.728Z,39.58
2022-11-29T09:07:27.086Z,32.72
2022-11-29T09:09:55.608Z,36.20
2022-11-29T09:12:24.118Z,34.90
2022-11-29T09:14:52.442Z,37.80
2022-11-29T09:17:20.813Z,40.05
2022-11-29T09:19:49.233Z,36.42
2022-11-29T09:22:19.040Z,39.38
2022-11-29T09:24:47.774Z,42.80
2022-11-29T09:27:16.345Z,40.85
2022-11-29T09:29:44.799Z,40.28
2022-11-29T09:32:13.193Z,30.30
2022-11-29T09:34:42.262Z,42.47
2022-11-29T09:37:10.783Z,47.42
2022-11-29T09:39:47.474Z,39.95
2022-11-29T09:42:35.889Z,42.83
2022-11-29T09:45:32.108Z,37.45
2022-11-29T09:48:49.502Z,34.67
2022-11-29T09:59:35.342Z,32.38
2022-11-29T10:02:27.543Z,27.55
2022-11-29T10:05:01.270Z,33.22
2022-11-29T10:10:47.423Z,31.63
2022-11-29T10:13:40.405Z,34.95
2022-11-29T10:16:16.079Z,31.70
2022-11-29T10:18:49.317Z,34.67
2022-11-29T10:21:33.700Z,32.05
2022-11-29T10:24:06.139Z,30.13
2022-11-29T10:26:35.491Z,30.40
2022-11-29T10:37:32.913Z,26.48
2022-11-29T10:40:04.519Z,27.45
2022-11-29T10:42:53.079Z,27.83
2022-11-29T10:45:29.333Z,25.35
2022-11-29T10:48:04.053Z,34.10
2022-11-29T10:50:57.140Z,29.20
2022-11-29T10:53:27.245Z,28.63
2022-11-29T10:56:01.382Z,31.73
2022-11-29T10:58:58.182Z,25.80
2022-11-29T11:01:28.987Z,24.88
2022-11-29T11:04:25.296Z,29.67
2022-11-29T11:06:56.403Z,29.95
2022-11-29T11:09:33.884Z,34.15
2022-11-29T11:12:29.093Z,30.10
2022-11-29T11:15:33.715Z,29.60
2022-11-29T11:18:04.805Z,32.75
2022-11-29T11:20:37.431Z,28.90
2022-11-29T11:23:25.745Z,29.88
2022-11-29T11:25:59.299Z,32.60
2022-11-29T11:28:31.129Z,29.58
2022-11-29T11:31:28.031Z,29.90
2022-11-29T11:33:56.731Z,30.23
2022-11-29T11:36:28.496Z,29.52
2022-11-29T11:39:14.264Z,33.08
2022-11-29T11:45:27.474Z,36.45
2022-11-29T11:48:19.075Z,30.63
2022-11-29T11:50:52.765Z,34.40
2022-11-29T11:53:25.926Z,34.63
2022-11-29T11:56:06.757Z,30.77
2022-11-29T11:58:37.862Z,36.47
2022-11-29T12:01:17.718Z,34.08
2022-11-29T12:04:03.518Z,33.38
2022-11-29T12:06:47.449Z,28.08
2022-11-29T12:09:38.457Z,30.95
2022-11-29T12:12:14.754Z,27.85
2022-11-29T12:14:52.928Z,27.08
2022-11-29T12:17:40.915Z,25.63
2022-11-29T12:20:18.682Z,23.63
2022-11-29T12:23:14.546Z,24.73
2022-11-29T12:25:50.254Z,20.67
2022-11-29T12:28:21.105Z,26.20
2022-11-29T12:31:12.553Z,20.98
2022-11-29T12:33:47.847Z,19.85
2022-11-29T12:36:43.473Z,23.48
2022-11-29T12:40:01.293Z,19.03
2022-11-29T12:42:50.164Z,20.38
2022-11-29T12:45:42.455Z,22.48
2022-11-29T12:48:23.099Z,25.33
2022-11-29T12:51:19.231Z,28.27
2022-11-29T12:54:02.223Z,21.75
2022-11-29T12:56:54.562Z,20.67
2022-11-29T12:59:36.308Z,20.73
2022-11-29T13:02:33.406Z,21.02
2022-11-29T13:05:10.524Z,21.83
2022-11-29T13:08:10.145Z,18.33
2022-11-29T13:10:56.890Z,19.10
2022-11-29T13:13:50.092Z,18.48
2022-11-29T13:16:37.221Z,17.98
2022-11-29T13:19:25.423Z,25.95
2022-11-29T13:22:02.296Z,23.65
2022-11-29T13:24:42.476Z,21.98
2022-11-29T13:27:26.005Z,17.38
2022-11-29T13:29:55.985Z,19.08
2022-11-29T13:32:37.227Z,18.65
2022-11-29T13:35:31.565Z,18.45
2022-11-29T13:38:04.702Z,15.57
2022-11-29T13:40:58.463Z,21.10
2022-11-29T13:43:36.018Z,21.17
2022-11-29T13:46:33.386Z,19.55
2022-11-29T13:49:03.419Z,20.25
2022-11-29T13:51:34.038Z,21.13
2022-11-29T13:54:16.383Z,19.73
2022-11-29T13:56:48.323Z,24.17
2022-11-29T13:59:20.386Z,21.90
2022-11-29T14:01:51.447Z,26.98
2022-11-29T14:04:37.267Z,18.92
2022-11-29T14:07:12.300Z,21.02
2022-11-29T14:10:05.206Z,25.48
2022-11-29T14:12:41.909Z,23.73
2022-11-29T14:15:22.783Z,23.63
2022-11-29T14:18:03.239Z,25.50
2022-11-29T14:20:54.929Z,28.50
2022-11-29T14:23:40.344Z,27.42
2022-11-29T14:26:31.314Z,28.35
2022-11-29T14:29:49.651Z,26.40
2022-11-29T14:32:34.729Z,29.60
2022-11-29T14:35:16.613Z,27.63
2022-11-29T14:37:54.265Z,31.33
2022-11-29T14:40:35.934Z,34.53
2022-11-29T14:43:15.802Z,33.00
2022-11-29T14:45:44.471Z,28.08
2022-11-29T14:48:29.093Z,30.17
2022-11-29T14:51:09.501Z,27.73
2022-11-29T14:53:40.705Z,33.47
2022-11-29T14:56:42.136Z,27.30
2022-11-29T14:59:46.412Z,32.13
2022-11-29T15:02:26.895Z,32.10
2022-11-29T15:04:57.590Z,32.20
2022-11-29T15:07:35.289Z,32.20
2022-11-29T15:10:14.437Z,34.58
2022-11-29T15:12:43.028Z,36.25
2022-11-29T15:15:35.835Z,35.08
2022-11-29T15:18:18.622Z,35.58
2022-11-29T15:21:08.376Z,28.48
2022-11-29T15:23:43.959Z,33.70
2022-11-29T15:29:17.720Z,32.83
2022-11-29T15:31:49.650Z,31.40
2022-11-29T15:34:36.251Z,32.47
2022-11-29T15:37:05.098Z,31.92
2022-11-29T15:39:34.886Z,40.55
2022-11-29T15:42:11.644Z,34.70
2022-11-29T15:44:46.385Z,35.85
2022-11-29T15:47:16.668Z,35.47
2022-11-29T15:49:44.984Z,36.30
2022-11-29T15:52:20.653Z,33.65
2022-11-29T15:54:53.098Z,36.42
2022-11-29T15:57:27.459Z,38.30
2022-11-29T15:59:57.987Z,39.38
2022-11-29T16:02:29.143Z,41.92
2022-11-29T16:05:00.960Z,45.03
2022-11-29T16:07:32.308Z,40.35
2022-11-29T16:10:05.479Z,43.63
2022-11-29T16:12:35.220Z,42.03
2022-11-29T16:15:04.082Z,41.40
2022-11-29T16:17:35.282Z,42.63
2022-11-29T16:20:24.220Z,42.22
2022-11-29T16:23:19.768Z,45.00
2022-11-29T16:25:59.549Z,42.03
2022-11-29T16:28:34.370Z,40.83
2022-11-29T16:31:05.681Z,43.03
2022-11-29T16:33:34.118Z,43.33
2022-11-29T16:36:07.060Z,46.20
2022-11-29T16:38:35.592Z,41.25
2022-11-29T16:41:06.780Z,45.10
2022-11-29T16:43:56.149Z,45.58
2022-11-29T16:46:39.312Z,43.95
2022-11-29T16:49:33.665Z,40.90
2022-11-29T16:52:03.150Z,43.53
2022-11-29T16:54:34.165Z,47.95
2022-11-29T16:57:05.460Z,43.58
2022-11-29T16:59:36.415Z,44.63
2022-11-29T17:02:10.765Z,49.63
2022-11-29T17:04:39.213Z,48.22
2022-11-29T17:07:09.162Z,48.92
2022-11-29T17:09:37.713Z,46.28
2022-11-29T17:12:06.767Z,55.50
2022-11-29T17:14:36.454Z,46.53
2022-11-29T17:17:04.918Z,57.78
2022-11-29T17:19:33.443Z,50.00
2022-11-29T17:22:01.985Z,55.03
2022-11-29T17:24:30.483Z,52.00
2022-11-29T17:26:58.803Z,60.17
2022-11-29T17:29:27.238Z,54.42
2022-11-29T17:31:57.070Z,54.08
2022-11-29T17:34:25.905Z,51.75
2022-11-29T17:36:54.258Z,49.65
2022-11-29T17:39:22.872Z,45.53
2022-11-29T17:41:51.246Z,51.72
2022-11-29T17:44:19.767Z,49.03
2022-11-29T17:46:48.102Z,45.70
2022-11-29T17:49:18.753Z,44.70
2022-11-29T17:51:52.133Z,46.45
2022-11-29T17:54:21.845Z,38.83
2022-11-29T17:56:50.632Z,45.55
2022-11-29T17:59:19.138Z,43.20
2022-11-29T18:01:48.190Z,39.40
2022-11-29T18:04:18.190Z,41.78
2022-11-29T18:06:49.850Z,43.90
2022-11-29T18:09:19.938Z,35.33
2022-11-29T18:11:50.467Z,38.97
2022-11-29T18:14:22.665Z,38.92
2022-11-29T18:16:51.622Z,33.30
2022-11-29T18:19:23.031Z,37.03
2022-11-29T18:21:52.046Z,34.92
2022-11-29T18:24:20.576Z,34.40
2022-11-29T18:26:48.924Z,32.88
2022-11-29T18:29:17.972Z,32.85
2022-11-29T18:31:47.227Z,30.60
2022-11-29T18:34:16.050Z,32.53
2022-11-29T18:36:47.777Z,29.58
2022-11-29T18:39:18.576Z,35.92
2022-11-29T18:41:48.894Z,30.67
2022-11-29T18:44:18.883Z,28.60
2022-11-29T18:46:47.802Z,33.80
2022-11-29T18:49:18.501Z,29.30
2022-11-29T18:51:49.678Z,27.67
2022-11-29T18:54:19.305Z,28.80
2022-11-29T18:56:47.866Z,27.77
2022-11-29T18:59:17.827Z,33.97
2022-11-29T19:01:48.511Z,38.67
2022-11-29T19:04:19.071Z,35.15
2022-11-29T19:06:49.715Z,38.67
2022-11-29T19:09:21.576Z,33.72
2022-11-29T19:11:50.838Z,36.20
2022-11-29T19:14:20.056Z,31.42
2022-11-29T19:16:50.198Z,36.47
2022-11-29T19:19:19.618Z,35.55
2022-11-29T19:21:49.776Z,31.00
2022-11-29T19:24:19.336Z,28.00
2022-11-29T19:26:49.839Z,28.23
2022-11-29T19:29:18.592Z,29.83
2022-11-29T19:31:47.145Z,29.98
2022-11-29T19:34:15.519Z,27.77
2022-11-29T19:36:45.112Z,30.48
2022-11-29T19:39:16.500Z,28.15
2022-11-29T19:41:47.453Z,32.15
2022-11-29T19:44:16.148Z,28.80
2022-11-29T19:46:46.909Z,25.42
2022-11-29T19:49:15.671Z,28.05
2022-11-29T19:51:44.344Z,20.80
2022-11-29T19:54:13.020Z,29.15
2022-11-29T19:56:42.801Z,24.35
2022-11-29T19:59:11.229Z,24.00
2022-11-29T20:01:41.791Z,24.67
2022-11-29T20:04:13.063Z,23.83
2022-11-29T20:06:41.832Z,29.33
2022-11-29T20:09:10.390Z,23.50
2022-11-29T20:11:39.160Z,24.90
2022-11-29T20:14:11.276Z,26.70
2022-11-29T20:16:39.659Z,25.48
2022-11-29T20:19:12.221Z,23.08
2022-11-29T20:21:43.259Z,22.52
2022-11-29T20:24:12.882Z,24.00
2022-11-29T20:26:42.603Z,26.52
2022-11-29T20:29:13.193Z,30.65
2022-11-29T20:31:49.085Z,30.65
2022-11-29T20:34:19.391Z,27.40
2022-11-29T20:37:08.417Z,28.52
2022-11-29T20:39:45.027Z,28.30
2022-11-29T20:42:38.461Z,30.92
2022-11-29T20:45:10.039Z,30.45
2022-11-29T20:47:45.865Z,26.58
2022-11-29T20:50:21.748Z,28.88
2022-11-29T20:53:03.636Z,31.25
2022-11-29T20:55:32.083Z,28.27
2022-11-29T20:58:00.471Z,28.85
2022-11-29T21:00:30.431Z,26.65
2022-11-29T21:02:58.778Z,27.30
2022-11-29T21:05:27.907Z,36.53
2022-11-29T21:07:56.492Z,27.77
2022-11-29T21:10:24.892Z,31.02
2022-11-29T21:12:53.712Z,31.65
2022-11-29T21:15:23.178Z,29.83
2022-11-29T21:17:54.016Z,22.85
2022-11-29T21:20:25.783Z,28.83
2022-11-29T21:22:59.508Z,28.48
2022-11-29T21:25:39.876Z,28.23
2022-11-29T21:28:12.553Z,28.15
2022-11-29T21:30:42.204Z,29.75
2022-11-29T21:33:12.541Z,24.30
2022-11-29T21:35:41.208Z,28.95
2022-11-29T21:38:15.232Z,25.30
2022-11-29T21:40:43.592Z,23.35
2022-11-29T21:43:12.012Z,29.95
2022-11-29T21:45:40.525Z,27.95
2022-11-29T21:48:29.458Z,31.02
2022-11-29T21:50:59.253Z,29.08
2022-11-29T21:53:28.003Z,28.35
2022-11-29T21:55:58.085Z,29.13
2022-11-29T21:58:26.800Z,21.55
2022-11-29T22:00:55.241Z,25.65
2022-11-29T22:03:23.642Z,24.00
2022-11-29T22:05:51.923Z,17.85
2022-11-29T22:08:21.617Z,23.30
2022-11-29T22:10:50.192Z,28.25
2022-11-29T22:13:18.555Z,31.98
2022-11-29T22:15:46.917Z,24.27
2022-11-29T22:18:15.511Z,28.15
2022-11-29T22:20:43.918Z,28.60
2022-11-29T22:23:12.277Z,29.83
2022-11-29T22:25:42.165Z,22.63
2022-11-29T22:28:10.579Z,22.38
2022-11-29T22:30:38.991Z,28.05
2022-11-29T22:33:13.088Z,26.10
2022-11-29T22:35:43.924Z,30.15
2022-11-29T22:38:12.293Z,28.67
2022-11-29T22:40:42.059Z,26.38
2022-11-29T22:43:10.413Z,26.73
2022-11-29T22:45:38.716Z,22.45
2022-11-29T22:48:07.074Z,25.98
2022-11-29T22:50:35.375Z,25.90
2022-11-29T22:53:03.713Z,27.13
2022-11-29T22:55:32.062Z,21.77
2022-11-29T22:58:01.825Z,30.00
2022-11-29T23:00:30.378Z,32.92
2022-11-29T23:02:58.849Z,29.00
2022-11-29T23:05:31.956Z,21.95
2022-11-29T23:08:00.702Z,27.52
2022-11-29T23:10:29.089Z,27.17
2022-11-29T23:12:57.508Z,25.70
2022-11-29T23:15:27.232Z,27.02
2022-11-29T23:17:55.602Z,24.33
2022-11-29T23:20:23.951Z,27.45
2022-11-29T23:22:52.337Z,23.50
2022-11-29T23:25:20.635Z,28.88
2022-11-29T23:27:50.576Z,28.90
2022-11-29T23:30:19.038Z,33.05
2022-11-29T23:32:48.744Z,29.55
2022-11-29T23:35:17.239Z,29.15
2022-11-29T23:37:45.585Z,28.77
2022-11-29T23:40:14.716Z,28.60
2022-11-29T23:42:46.999Z,29.92
2022-11-29T23:45:15.784Z,32.08
2022-11-29T23:47:44.330Z,27.55
2022-11-29T23:50:14.187Z,33.58
2022-11-29T23:52:42.517Z,29.45
2022-11-29T23:55:12.911Z,34.17
2022-11-29T23:57:41.369Z,35.45
